Denton, TX (76201)

2:05 AM CST on February 12, 2016 (GMT -0600)
Denia neighborhood | | Change Station
CLOSE
Current Station
Personal Weather Station
Location: Denton, TX
Elevation: 674 ft
Nearby Weather Stations

Elev 674 ft 33.20 °N, 97.15 °W | Updated 19 seconds ago

Clear
Clear
49.5 °F
Feels Like 50 °F
N
0.0
Wind Variable Wind from North
Gusts 0.0 mph

Today
High -- | Low -- °F
--% Chance of Precip.
Yesterday
High -- | Low -- °F
Precip. -- in
Pressure 30.14 in
Visibility 10.0 miles
Clouds Clear
Windchill 50 °F
Dew Point 36 °F
Humidity 60%
Rainfall 0.00 in
Snow Depth Not available.
7:15 AM 6:10 PM
Waxing Crescent, 18% visible
METAR KDTO 120753Z AUTO 35006KT 10SM CLR 07/01 A3015 RMK AO2 SLP206 T00670006
Pressure 30.14 in
Visibility 10.0 miles
Clouds Clear
Windchill 50 °F
Dew Point 36 °F
Humidity 60%
Rainfall 0.00 in
Snow Depth Not available.
7:15 AM 6:10 PM
Waxing Crescent, 18% visible
METAR KDTO 120753Z AUTO 35006KT 10SM CLR 07/01 A3015 RMK AO2 SLP206 T00670006

10-Day Weather Forecast

Almanac

Astronomy

Feb. 12, 2016 Rise Set
Actual Time
Civil Twilight
Nautical Twilight
Astronomical Twilight
Moon
Length of Visible Light
Length of Day
Tomorrow will be .
, % of the Moon is Illuminated

Today's Extremes

State Highs State Lows

Community

WunderPhotos

Upload Photos

1,892,278 photos uploaded!

WunderBlog® & News

Nearby

Air Quality

  Air Quality AQ Index Pollutant
Not available.

Snow Depth

Station Depth Elevation

Earthquake Activity

City Distance Mag. Time & Date
Minimum magnitude displayed is 2.5.

Coastal Water Temperatures

Place Temperature

Stations

Nearby Weather Stations

Station Location Temp. Windchill Dew Point Humidity Wind Precip. Elev Updated Type
                   

Watches & Warnings

There are currently no watches in effect.